createdAt,value
2018-12-03T00:01:38.669Z,13.80
2018-12-03T00:09:53.768Z,13.80
2018-12-03T00:12:22.337Z,13.80
2018-12-03T00:14:57.701Z,13.80
2018-12-03T00:17:26.190Z,13.80
2018-12-03T00:19:54.646Z,13.80
2018-12-03T00:25:15.781Z,13.80
2018-12-03T00:33:30.173Z,13.80
2018-12-03T00:35:58.588Z,13.70
2018-12-03T00:38:27.141Z,13.70
2018-12-03T00:41:09.075Z,13.70
2018-12-03T00:43:37.636Z,13.70
2018-12-03T00:46:10.337Z,13.70
2018-12-03T00:51:31.726Z,13.70
2018-12-03T00:59:46.358Z,13.70
2018-12-03T01:05:08.685Z,13.70
2018-12-03T01:07:37.211Z,13.70
2018-12-03T01:15:52.357Z,13.70
2018-12-03T01:18:27.730Z,13.70
2018-12-03T01:20:56.306Z,13.70
2018-12-03T01:29:32.211Z,13.60
2018-12-03T01:32:00.685Z,13.60
2018-12-03T01:34:29.131Z,13.60
2018-12-03T01:37:15.228Z,13.60
2018-12-03T01:39:51.910Z,13.60
2018-12-03T01:42:20.449Z,13.60
2018-12-03T01:45:03.199Z,13.60
2018-12-03T01:50:33.990Z,13.60
2018-12-03T01:53:20.953Z,13.60
2018-12-03T02:04:34.501Z,13.60
2018-12-03T02:07:02.977Z,13.60
2018-12-03T02:09:45.340Z,13.60
2018-12-03T02:12:13.875Z,13.60
2018-12-03T02:17:35.605Z,13.60
2018-12-03T02:25:52.469Z,13.60
2018-12-03T02:28:39.145Z,13.60
2018-12-03T02:31:15.807Z,13.60
2018-12-03T02:33:44.325Z,13.60
2018-12-03T02:39:08.233Z,13.60
2018-12-03T02:41:37.213Z,13.60
2018-12-03T02:46:58.575Z,13.60
2018-12-03T02:49:45.163Z,13.50
2018-12-03T02:52:13.746Z,13.50
2018-12-03T02:57:35.677Z,13.60
2018-12-03T03:00:26.260Z,13.50
2018-12-03T03:03:09.169Z,13.50
2018-12-03T03:05:56.273Z,13.50
2018-12-03T03:11:17.357Z,13.50
2018-12-03T03:13:46.639Z,13.50
2018-12-03T03:16:21.805Z,13.50
2018-12-03T03:18:50.374Z,13.50
2018-12-03T03:21:27.838Z,13.50
2018-12-03T03:23:56.338Z,13.50
2018-12-03T03:26:24.781Z,13.50
2018-12-03T03:29:09.234Z,13.50
2018-12-03T03:31:51.243Z,13.50
2018-12-03T03:34:22.645Z,13.50
2018-12-03T03:36:52.550Z,13.50
2018-12-03T03:39:20.980Z,13.50
2018-12-03T03:41:49.581Z,13.50
2018-12-03T03:44:22.493Z,13.50
2018-12-03T03:46:52.478Z,13.50
2018-12-03T03:49:22.509Z,13.50
2018-12-03T03:51:52.469Z,13.50
2018-12-03T04:00:13.885Z,13.50
2018-12-03T04:05:35.124Z,13.50
2018-12-03T04:08:09.861Z,13.50
2018-12-03T04:10:38.458Z,13.50
2018-12-03T04:15:59.552Z,13.50
2018-12-03T04:18:39.890Z,13.50
2018-12-03T04:26:54.743Z,13.50
2018-12-03T04:32:16.689Z,13.50
2018-12-03T04:37:37.841Z,13.50
2018-12-03T04:43:15.270Z,13.50
2018-12-03T04:45:43.713Z,13.40
2018-12-03T04:48:12.270Z,13.50
2018-12-03T04:56:34.016Z,13.50
2018-12-03T04:59:02.528Z,13.50
2018-12-03T05:01:45.231Z,13.50
2018-12-03T05:04:13.830Z,13.40
2018-12-03T05:07:35.959Z,13.50
2018-12-03T05:10:16.634Z,13.40
2018-12-03T05:12:58.031Z,13.50
2018-12-03T05:15:39.120Z,13.50
2018-12-03T05:18:20.469Z,13.40
2018-12-03T05:21:01.276Z,13.40
2018-12-03T05:23:42.071Z,13.40
2018-12-03T05:26:23.317Z,13.40
2018-12-03T05:29:04.074Z,13.40
2018-12-03T05:31:45.495Z,13.40
2018-12-03T05:34:26.467Z,13.40
2018-12-03T05:37:07.568Z,13.40
2018-12-03T05:39:48.625Z,13.40
2018-12-03T05:42:29.662Z,13.40
2018-12-03T05:45:10.518Z,13.50
2018-12-03T05:47:51.690Z,13.40
2018-12-03T05:50:32.803Z,13.40
2018-12-03T05:53:13.726Z,13.40
2018-12-03T05:55:54.794Z,13.40
2018-12-03T05:58:35.915Z,13.40
2018-12-03T06:01:16.975Z,13.40
2018-12-03T06:03:58.063Z,13.40
2018-12-03T06:06:38.876Z,13.40
2018-12-03T06:09:19.576Z,13.40
2018-12-03T06:12:00.774Z,13.40
2018-12-03T06:14:41.776Z,13.40
2018-12-03T06:17:22.850Z,13.40
2018-12-03T06:20:03.902Z,13.40
2018-12-03T06:22:44.743Z,13.40
2018-12-03T06:25:26.000Z,13.40
2018-12-03T06:28:07.078Z,13.40
2018-12-03T06:30:48.267Z,13.40
2018-12-03T06:33:29.230Z,13.40
2018-12-03T06:36:10.163Z,13.40
2018-12-03T06:38:50.998Z,13.40
2018-12-03T06:41:32.030Z,13.40
2018-12-03T06:44:12.533Z,13.40
2018-12-03T06:46:53.274Z,13.40
2018-12-03T06:49:34.198Z,13.40
2018-12-03T06:52:15.340Z,13.40
2018-12-03T06:54:55.974Z,13.40
2018-12-03T06:57:37.318Z,13.40
2018-12-03T07:00:18.630Z,13.40
2018-12-03T07:02:59.778Z,13.40
2018-12-03T07:05:40.904Z,13.40
2018-12-03T07:08:21.983Z,13.40
2018-12-03T07:11:02.730Z,13.40
2018-12-03T07:13:43.721Z,13.40
2018-12-03T07:16:24.540Z,13.40
2018-12-03T07:19:05.346Z,13.30
2018-12-03T07:21:46.686Z,13.40
2018-12-03T07:24:28.074Z,13.40
2018-12-03T07:27:09.255Z,13.30
2018-12-03T07:29:52.904Z,13.30
2018-12-03T07:32:33.269Z,13.30
2018-12-03T07:35:14.370Z,13.30
2018-12-03T07:37:54.824Z,13.30
2018-12-03T07:40:35.742Z,13.30
2018-12-03T07:43:16.562Z,13.40
2018-12-03T07:45:57.359Z,13.40
2018-12-03T07:48:38.444Z,13.40
2018-12-03T07:51:19.351Z,13.30
2018-12-03T07:54:00.050Z,13.30
2018-12-03T07:56:41.245Z,13.30
2018-12-03T07:59:22.482Z,13.30
2018-12-03T08:02:03.321Z,13.30
2018-12-03T08:04:44.190Z,13.30
2018-12-03T08:07:25.316Z,13.30
2018-12-03T08:10:06.325Z,13.30
2018-12-03T08:12:47.374Z,13.30
2018-12-03T08:15:28.646Z,13.30
2018-12-03T08:18:10.027Z,13.30
2018-12-03T08:20:51.100Z,13.30
2018-12-03T08:23:32.130Z,13.30
2018-12-03T08:26:13.373Z,13.30
2018-12-03T08:28:54.429Z,13.30
2018-12-03T08:31:34.974Z,13.30
2018-12-03T08:34:15.958Z,13.30
2018-12-03T08:36:57.050Z,13.30
2018-12-03T08:39:37.810Z,13.30
2018-12-03T08:42:19.120Z,13.30
2018-12-03T08:44:59.585Z,13.30
2018-12-03T08:47:40.719Z,13.30
2018-12-03T08:50:21.840Z,13.30
2018-12-03T08:53:02.979Z,13.30
2018-12-03T08:55:43.734Z,13.30
2018-12-03T08:58:24.720Z,13.30
2018-12-03T09:01:08.445Z,13.30
2018-12-03T09:03:49.654Z,13.30
2018-12-03T09:06:30.987Z,13.30
2018-12-03T09:09:12.072Z,13.30
2018-12-03T09:11:53.190Z,13.30
2018-12-03T09:14:34.378Z,13.30
2018-12-03T09:17:15.759Z,13.30
2018-12-03T09:19:56.788Z,13.30
2018-12-03T09:22:37.918Z,13.30
2018-12-03T09:25:19.068Z,13.30
2018-12-03T09:28:00.370Z,13.30
2018-12-03T09:30:40.924Z,13.30
2018-12-03T09:33:21.398Z,13.30
2018-12-03T09:36:02.666Z,13.30
2018-12-03T09:38:43.758Z,13.30
2018-12-03T09:41:24.686Z,13.30
2018-12-03T09:44:05.534Z,13.30
2018-12-03T09:46:46.794Z,13.30
2018-12-03T09:49:27.614Z,13.30
2018-12-03T09:52:08.894Z,13.30
2018-12-03T09:54:49.932Z,13.30
2018-12-03T09:57:30.939Z,13.30
2018-12-03T10:00:14.761Z,13.30
2018-12-03T10:02:55.606Z,13.30
2018-12-03T10:05:36.746Z,13.30
2018-12-03T10:08:19.518Z,13.30
2018-12-03T10:11:00.546Z,13.30
2018-12-03T10:13:41.590Z,13.20
2018-12-03T10:16:22.706Z,13.30
2018-12-03T10:19:03.747Z,13.30
2018-12-03T10:21:44.728Z,13.30
2018-12-03T10:24:25.823Z,13.30
2018-12-03T10:27:06.858Z,13.30
2018-12-03T10:29:47.827Z,13.30
2018-12-03T10:32:28.714Z,13.30
2018-12-03T10:35:09.769Z,13.30
2018-12-03T10:37:53.514Z,13.30
2018-12-03T10:40:33.914Z,13.30
2018-12-03T10:43:14.321Z,13.20
2018-12-03T10:45:55.583Z,13.30
2018-12-03T10:48:36.958Z,13.30
2018-12-03T10:51:17.702Z,13.30
2018-12-03T10:56:47.657Z,13.30
2018-12-03T10:59:28.751Z,13.20
2018-12-03T11:02:29.906Z,13.20
2018-12-03T11:08:16.254Z,13.30
2018-12-03T11:10:57.519Z,13.30
2018-12-03T11:13:38.214Z,13.30
2018-12-03T11:16:19.367Z,13.20
2018-12-03T11:19:00.380Z,13.30
2018-12-03T11:21:41.145Z,13.30
2018-12-03T11:24:21.780Z,13.30
2018-12-03T11:27:02.299Z,13.20
2018-12-03T11:29:43.588Z,13.30
2018-12-03T11:32:24.654Z,13.20
2018-12-03T11:35:06.022Z,13.30
2018-12-03T11:37:47.027Z,13.30
2018-12-03T11:40:27.846Z,13.20
2018-12-03T11:43:08.976Z,13.20
2018-12-03T11:45:50.074Z,13.30
2018-12-03T11:48:31.419Z,13.30
2018-12-03T11:51:12.463Z,13.20
2018-12-03T11:53:53.203Z,13.20
2018-12-03T11:56:33.889Z,13.20
2018-12-03T11:59:15.133Z,13.20
2018-12-03T12:01:55.782Z,13.20
2018-12-03T12:04:36.434Z,13.30
2018-12-03T12:07:17.379Z,13.30
2018-12-03T12:09:58.385Z,13.30
2018-12-03T12:12:39.362Z,13.30
2018-12-03T12:15:20.447Z,13.30
2018-12-03T12:18:01.555Z,13.20
2018-12-03T12:20:42.479Z,13.20
2018-12-03T12:23:23.311Z,13.20
2018-12-03T12:26:04.449Z,13.20
2018-12-03T12:28:45.916Z,13.20
2018-12-03T12:31:27.219Z,13.20
2018-12-03T12:34:07.898Z,13.20
2018-12-03T12:36:48.574Z,13.20
2018-12-03T12:39:29.571Z,13.20
2018-12-03T12:42:10.540Z,13.30
2018-12-03T12:44:51.796Z,13.30
2018-12-03T12:47:32.971Z,13.20
2018-12-03T12:50:13.932Z,13.20
2018-12-03T12:52:54.592Z,13.20
2018-12-03T12:55:35.110Z,13.20
2018-12-03T12:58:16.274Z,13.30
2018-12-03T13:00:57.212Z,13.20
2018-12-03T13:03:38.144Z,13.20
2018-12-03T13:06:19.355Z,13.20
2018-12-03T13:09:00.327Z,13.20
2018-12-03T13:11:41.147Z,13.20
2018-12-03T13:14:22.156Z,13.20
2018-12-03T13:17:03.154Z,13.30
2018-12-03T13:19:43.973Z,13.20
2018-12-03T13:22:30.246Z,13.20
2018-12-03T13:25:07.036Z,13.30
2018-12-03T13:27:48.167Z,13.20
2018-12-03T13:30:29.496Z,13.20
2018-12-03T13:33:10.615Z,13.20
2018-12-03T13:35:51.670Z,13.30
2018-12-03T13:38:32.745Z,13.30
2018-12-03T13:41:13.810Z,13.20
2018-12-03T13:43:55.006Z,13.30
2018-12-03T13:46:36.245Z,13.20
2018-12-03T13:49:17.210Z,13.20
2018-12-03T13:51:58.080Z,13.20
2018-12-03T13:54:39.111Z,13.20
2018-12-03T13:57:20.269Z,13.20
2018-12-03T14:00:01.632Z,13.20
2018-12-03T14:02:43.027Z,13.20
2018-12-03T14:05:24.198Z,13.20
2018-12-03T14:08:05.089Z,13.20
2018-12-03T14:10:46.136Z,13.20
2018-12-03T14:13:26.991Z,13.20
2018-12-03T14:16:07.827Z,13.20
2018-12-03T14:18:48.786Z,13.30
2018-12-03T14:21:29.772Z,13.20
2018-12-03T14:24:10.767Z,13.20
2018-12-03T14:26:52.123Z,13.30
2018-12-03T14:29:33.357Z,13.20
2018-12-03T14:32:14.638Z,13.30
2018-12-03T14:34:55.592Z,13.30
2018-12-03T14:37:36.599Z,13.20
2018-12-03T14:40:17.737Z,13.20
2018-12-03T14:42:58.163Z,13.20
2018-12-03T14:45:39.134Z,13.20
2018-12-03T14:48:19.868Z,13.20
2018-12-03T14:51:01.344Z,13.20
2018-12-03T14:53:42.554Z,13.20
2018-12-03T14:56:23.977Z,13.20
2018-12-03T14:59:04.626Z,13.20
2018-12-03T15:01:45.842Z,13.20
2018-12-03T15:04:26.646Z,13.20
2018-12-03T15:07:07.610Z,13.20
2018-12-03T15:09:48.119Z,13.20
2018-12-03T15:12:29.258Z,13.20
2018-12-03T15:15:10.443Z,13.20
2018-12-03T15:17:51.430Z,13.20
2018-12-03T15:20:31.971Z,13.20
2018-12-03T15:23:13.133Z,13.20
2018-12-03T15:25:54.515Z,13.20
2018-12-03T15:28:35.402Z,13.20
2018-12-03T15:31:16.484Z,13.20
2018-12-03T15:33:57.795Z,13.20
2018-12-03T15:36:39.197Z,13.20
2018-12-03T15:39:20.314Z,13.20
2018-12-03T15:42:01.466Z,13.20
2018-12-03T15:44:42.307Z,13.20
2018-12-03T15:47:22.903Z,13.20
2018-12-03T15:50:03.838Z,13.20
2018-12-03T15:52:44.971Z,13.20
2018-12-03T15:55:26.278Z,13.20
2018-12-03T15:58:07.687Z,13.20
2018-12-03T16:00:48.658Z,13.20
2018-12-03T16:03:29.840Z,13.20
2018-12-03T16:06:10.626Z,13.20
2018-12-03T16:08:51.802Z,13.20
2018-12-03T16:11:32.702Z,13.20
2018-12-03T16:14:13.660Z,13.20
2018-12-03T16:16:54.768Z,13.20
2018-12-03T16:19:35.774Z,13.20
2018-12-03T16:22:16.757Z,13.20
2018-12-03T16:24:57.545Z,13.20
2018-12-03T16:27:38.479Z,13.20
2018-12-03T16:33:18.431Z,13.20
2018-12-03T16:35:59.402Z,13.20
2018-12-03T16:38:40.678Z,13.20
2018-12-03T16:41:21.798Z,13.20
2018-12-03T16:44:02.797Z,13.20
2018-12-03T16:46:43.907Z,13.20
2018-12-03T16:49:24.984Z,13.20
2018-12-03T16:52:06.025Z,13.20
2018-12-03T16:54:47.020Z,13.20
2018-12-03T16:57:27.738Z,13.20
2018-12-03T17:00:08.652Z,13.20
2018-12-03T17:02:49.395Z,13.20
2018-12-03T17:05:30.774Z,13.20
2018-12-03T17:08:12.118Z,13.20
2018-12-03T17:10:53.404Z,13.20
2018-12-03T17:13:34.361Z,13.20
2018-12-03T17:16:15.717Z,13.20
2018-12-03T17:18:56.752Z,13.20
2018-12-03T17:21:37.955Z,13.20
2018-12-03T17:24:19.047Z,13.20
2018-12-03T17:26:59.716Z,13.20
2018-12-03T17:29:41.116Z,13.20
2018-12-03T17:32:22.059Z,13.20
2018-12-03T17:35:03.200Z,13.20
2018-12-03T17:37:43.856Z,13.20
2018-12-03T17:40:24.994Z,13.20
2018-12-03T17:43:06.065Z,13.20
2018-12-03T17:45:47.328Z,13.20
2018-12-03T17:48:28.363Z,13.20
2018-12-03T17:51:09.679Z,13.20
2018-12-03T17:53:50.814Z,13.20
2018-12-03T17:56:32.019Z,13.20
2018-12-03T17:59:13.106Z,13.20
2018-12-03T18:01:54.370Z,13.20
2018-12-03T18:04:35.370Z,13.20
2018-12-03T18:07:16.482Z,13.20
2018-12-03T18:12:41.419Z,13.20
2018-12-03T18:15:22.017Z,13.20
2018-12-03T18:18:03.062Z,13.20
2018-12-03T18:20:44.113Z,13.20
2018-12-03T18:23:25.333Z,13.20
2018-12-03T18:26:06.137Z,13.20
2018-12-03T18:28:47.493Z,13.20
2018-12-03T18:31:28.323Z,13.20
2018-12-03T18:34:09.279Z,13.20
2018-12-03T18:36:49.942Z,13.20
2018-12-03T18:39:30.881Z,13.20
2018-12-03T18:42:11.858Z,13.20
2018-12-03T18:47:39.575Z,13.20
2018-12-03T18:50:20.404Z,13.20
2018-12-03T18:53:01.567Z,13.20
2018-12-03T18:55:42.503Z,13.20
2018-12-03T18:58:23.527Z,13.20
2018-12-03T19:01:04.614Z,13.20
2018-12-03T19:03:45.753Z,13.20
2018-12-03T19:06:26.483Z,13.20
2018-12-03T19:09:10.225Z,13.20
2018-12-03T19:15:03.858Z,13.20
2018-12-03T19:17:44.783Z,13.20
2018-12-03T19:20:25.862Z,13.20
2018-12-03T19:23:07.011Z,13.20
2018-12-03T19:25:47.524Z,13.20
2018-12-03T19:28:28.677Z,13.20
2018-12-03T19:31:09.946Z,13.10
2018-12-03T19:33:50.971Z,13.20
2018-12-03T19:36:32.354Z,13.20
2018-12-03T19:39:12.946Z,13.20
2018-12-03T19:41:54.055Z,13.20
2018-12-03T19:44:34.970Z,13.20
2018-12-03T19:47:16.146Z,13.20
2018-12-03T19:49:57.453Z,13.20
2018-12-03T19:52:38.698Z,13.20
2018-12-03T19:55:22.974Z,13.20
2018-12-03T19:58:04.043Z,13.10
2018-12-03T20:00:45.085Z,13.20
2018-12-03T20:03:25.716Z,13.10
2018-12-03T20:06:06.807Z,13.10
2018-12-03T20:08:48.062Z,13.10
2018-12-03T20:11:29.074Z,13.20
2018-12-03T20:14:10.462Z,13.10
2018-12-03T20:23:11.872Z,13.30
2018-12-03T20:25:53.092Z,13.20
2018-12-03T20:28:34.279Z,13.20
2018-12-03T20:31:15.106Z,13.20
2018-12-03T20:33:55.691Z,13.20
2018-12-03T20:36:36.782Z,13.10
2018-12-03T20:39:17.646Z,13.10
2018-12-03T20:41:58.535Z,13.10
2018-12-03T20:44:39.361Z,13.10
2018-12-03T20:47:19.966Z,13.10
2018-12-03T20:50:00.900Z,13.10
2018-12-03T20:52:47.181Z,13.10
2018-12-03T20:55:27.838Z,13.10
2018-12-03T20:58:08.566Z,13.10
2018-12-03T21:00:49.243Z,13.10
2018-12-03T21:03:30.199Z,13.10
2018-12-03T21:06:11.326Z,13.10
2018-12-03T21:08:52.408Z,13.10
2018-12-03T21:11:33.358Z,13.10
2018-12-03T21:14:19.928Z,13.10
2018-12-03T21:16:56.598Z,13.20
2018-12-03T21:19:37.545Z,13.10
2018-12-03T21:25:07.963Z,13.10
2018-12-03T21:27:49.086Z,13.10
2018-12-03T21:30:30.350Z,13.10
2018-12-03T21:33:11.185Z,13.10
2018-12-03T21:35:52.212Z,13.10
2018-12-03T21:38:32.779Z,13.10
2018-12-03T21:41:13.373Z,13.10
2018-12-03T21:43:54.410Z,13.10
2018-12-03T21:46:35.247Z,13.10
2018-12-03T21:49:16.257Z,13.10
2018-12-03T21:51:57.278Z,13.10
2018-12-03T21:54:38.030Z,13.10
2018-12-03T21:57:18.723Z,13.10
2018-12-03T21:59:59.687Z,13.10
2018-12-03T22:02:40.090Z,13.10
2018-12-03T22:05:21.177Z,13.10
2018-12-03T22:08:02.383Z,13.10
2018-12-03T22:10:43.602Z,13.10
2018-12-03T22:13:24.298Z,13.10
2018-12-03T22:16:05.306Z,13.10
2018-12-03T22:18:46.301Z,13.10
2018-12-03T22:24:10.111Z,13.10
2018-12-03T22:26:51.458Z,13.00
2018-12-03T22:29:31.954Z,13.10
2018-12-03T22:32:13.026Z,13.00
2018-12-03T22:34:53.986Z,13.00
2018-12-03T22:37:34.858Z,13.10
2018-12-03T22:40:17.362Z,13.00
2018-12-03T22:42:58.266Z,13.10
2018-12-03T22:45:39.231Z,13.00
2018-12-03T22:48:19.729Z,13.10
2018-12-03T22:51:00.882Z,13.00
2018-12-03T22:59:23.050Z,13.00
2018-12-03T23:02:04.030Z,13.10
2018-12-03T23:04:45.081Z,13.00
2018-12-03T23:07:26.347Z,13.00
2018-12-03T23:10:07.433Z,13.00
2018-12-03T23:12:48.518Z,13.00
2018-12-03T23:15:29.668Z,13.00
2018-12-03T23:18:10.545Z,13.00
2018-12-03T23:20:51.838Z,13.10
2018-12-03T23:23:33.232Z,13.00
2018-12-03T23:26:13.834Z,13.00
2018-12-03T23:28:54.702Z,13.00
2018-12-03T23:31:35.772Z,13.00
2018-12-03T23:34:16.590Z,13.00
2018-12-03T23:39:40.474Z,13.00
2018-12-03T23:42:21.397Z,13.00
2018-12-03T23:45:01.817Z,13.00
2018-12-03T23:47:42.883Z,13.00
2018-12-03T23:50:23.856Z,13.00
2018-12-03T23:53:04.903Z,13.00
2018-12-03T23:55:45.360Z,13.00
